Time;durP1;ratioP1;P1;durP2;ratioP2;P2;SDS_P1;SDS_P2;PMS_P1;PMS_P2;Temp;Humidity;BMP_temperature;BMP_pressure;BME280_temperature;BME280_humidity;BME280_pressure;Samples;Min_cycle;Max_cycle;Signal;HPM_P1;HPM_P2
2022/11/13 00:02:15;;;;;;;8.35;5.80;;;;;;;;;;5034742;28;20229;-89
2022/11/13 00:04:41;;;;;;;9.38;4.80;;;;;;;;;;5033518;28;20265;-87
2022/11/13 00:07:07;;;;;;;8.13;5.10;;;;;;;;;;5035149;28;20236;-88
2022/11/13 00:09:33;;;;;;;4.90;4.00;;;;;;;;;;5032943;28;20186;-87
2022/11/13 00:12:02;;;;;;;6.25;5.28;;;;;;;;;;5032855;28;20732;-89
2022/11/13 00:14:28;;;;;;;7.00;5.32;;;;;;;;;;5033979;28;20174;-88
2022/11/13 00:16:54;;;;;;;8.45;5.20;;;;;;;;;;5033358;28;20193;-88
2022/11/13 00:19:20;;;;;;;6.65;5.72;;;;;;;;;;5032963;28;20185;-87
2022/11/13 00:21:46;;;;;;;5.57;4.28;;;;;;;;;;5042703;28;20220;-85
2022/11/13 00:24:12;;;;;;;7.07;5.40;;;;;;;;;;5054503;28;20184;-87
2022/11/13 00:26:38;;;;;;;11.05;6.00;;;;;;;;;;5053399;28;20276;-88
2022/11/13 00:29:04;;;;;;;8.50;5.82;;;;;;;;;;5053665;28;20718;-88
2022/11/13 00:31:31;;;;;;;7.28;6.03;;;;;;;;;;5054335;28;20226;-88
2022/11/13 00:33:59;;;;;;;9.57;5.75;;;;;;;;;;5054635;28;20181;-88
2022/11/13 00:36:26;;;;;;;9.15;5.57;;;;;;;;;;5053280;28;20178;-86
2022/11/13 00:38:53;;;;;;;7.65;6.95;;;;;;;;;;5054766;28;20165;-87
2022/11/13 00:41:19;;;;;;;10.95;6.63;;;;;;;;;;5053657;28;20538;-87
2022/11/13 00:43:45;;;;;;;10.98;5.55;;;;;;;;;;5053163;28;20535;-88
2022/11/13 00:46:11;;;;;;;6.20;4.97;;;;;;;;;;5038332;28;20511;-88
2022/11/13 00:48:37;;;;;;;7.13;5.82;;;;;;;;;;5053022;28;20193;-86
2022/11/13 00:51:03;;;;;;;10.07;5.75;;;;;;;;;;5053824;28;20174;-86
2022/11/13 00:53:30;;;;;;;9.07;5.50;;;;;;;;;;5053574;28;20184;-88
2022/11/13 00:55:56;;;;;;;7.03;5.20;;;;;;;;;;5052575;28;20174;-88
2022/11/13 00:58:22;;;;;;;7.38;5.28;;;;;;;;;;5052457;28;20181;-87
2022/11/13 01:00:48;;;;;;;6.88;5.20;;;;;;;;;;5053990;28;20271;-87
2022/11/13 01:03:15;;;;;;;10.07;6.25;;;;;;;;;;5054161;28;20165;-87
2022/11/13 01:05:43;;;;;;;10.15;6.32;;;;;;;;;;5053999;28;20170;-87
2022/11/13 01:08:11;;;;;;;13.00;6.75;;;;;;;;;;5053924;28;20166;-88
2022/11/13 01:10:39;;;;;;;8.95;6.70;;;;;;;;;;5052643;28;20257;-88
2022/11/13 01:13:05;;;;;;;10.10;5.50;;;;;;;;;;5052897;28;20212;-88
2022/11/13 01:15:31;;;;;;;9.77;6.00;;;;;;;;;;5053836;28;20178;-87
2022/11/13 01:17:57;;;;;;;8.93;6.50;;;;;;;;;;5052827;28;20240;-86
2022/11/13 01:20:23;;;;;;;7.72;5.18;;;;;;;;;;5052401;28;20169;-88
2022/11/13 01:22:49;;;;;;;7.82;5.97;;;;;;;;;;5059783;28;20177;-88
2022/11/13 01:25:16;;;;;;;9.82;5.75;;;;;;;;;;5060339;28;20190;-89
2022/11/13 01:27:42;;;;;;;7.47;6.13;;;;;;;;;;5043801;28;20588;-88
2022/11/13 01:30:08;;;;;;;6.28;5.55;;;;;;;;;;5055382;28;20216;-88
2022/11/13 01:32:34;;;;;;;9.23;5.88;;;;;;;;;;5052027;28;20213;-88
2022/11/13 01:35:00;;;;;;;5.97;5.30;;;;;;;;;;5053160;28;20182;-88
2022/11/13 01:37:26;;;;;;;9.23;5.70;;;;;;;;;;5053741;28;20217;-87
2022/11/13 01:39:52;;;;;;;7.05;5.50;;;;;;;;;;5056138;28;20177;-88
2022/11/13 01:42:18;;;;;;;8.82;6.68;;;;;;;;;;5057057;28;20519;-86
2022/11/13 01:44:55;;;;;;;8.95;6.30;;;;;;;;;;5057089;28;20173;-89
2022/11/13 01:47:22;;;;;;;8.60;5.88;;;;;;;;;;5057815;28;20188;-87
2022/11/13 01:49:51;;;;;;;16.80;6.70;;;;;;;;;;5058668;28;20205;-90
2022/11/13 01:52:20;;;;;;;7.00;5.50;;;;;;;;;;5057120;28;20579;-89
2022/11/13 01:54:48;;;;;;;6.38;5.72;;;;;;;;;;5060980;28;20185;-88
2022/11/13 01:57:15;;;;;;;10.43;6.63;;;;;;;;;;5057999;28;20173;-88
2022/11/13 01:59:43;;;;;;;6.32;5.50;;;;;;;;;;5058907;28;20189;-88
2022/11/13 02:02:09;;;;;;;7.95;6.55;;;;;;;;;;5056223;28;20225;-87
2022/11/13 02:04:35;;;;;;;8.80;6.28;;;;;;;;;;5056016;28;20256;-88
2022/11/13 02:07:04;;;;;;;9.07;6.10;;;;;;;;;;5056083;28;20196;-88
2022/11/13 02:09:31;;;;;;;8.02;7.03;;;;;;;;;;5055763;28;20178;-87
2022/11/13 02:11:58;;;;;;;8.95;6.78;;;;;;;;;;5055368;28;20216;-88
2022/11/13 02:14:25;;;;;;;11.68;6.45;;;;;;;;;;5056678;28;20192;-87
2022/11/13 02:16:54;;;;;;;8.10;5.32;;;;;;;;;;5055541;28;20173;-87
2022/11/13 02:19:23;;;;;;;7.50;5.88;;;;;;;;;;5055020;28;20569;-83
2022/11/13 02:21:58;;;;;;;8.98;6.25;;;;;;;;;;5057167;28;20196;-89
2022/11/13 02:24:30;;;;;;;7.70;6.18;;;;;;;;;;5055974;28;20318;-88
2022/11/13 02:26:58;;;;;;;6.78;6.13;;;;;;;;;;5056765;28;20196;-89
2022/11/13 02:29:24;;;;;;;7.93;5.85;;;;;;;;;;5055228;28;20207;-88
2022/11/13 02:31:50;;;;;;;8.18;5.85;;;;;;;;;;5055480;28;20233;-89
2022/11/13 02:34:16;;;;;;;9.40;6.22;;;;;;;;;;5056621;28;20174;-87
2022/11/13 02:36:42;;;;;;;7.97;6.00;;;;;;;;;;5038690;28;20188;-88
2022/11/13 02:39:09;;;;;;;8.82;5.85;;;;;;;;;;5056707;28;20523;-88
2022/11/13 02:41:37;;;;;;;6.75;5.65;;;;;;;;;;5054798;28;20185;-88
2022/11/13 02:44:03;;;;;;;8.35;6.07;;;;;;;;;;5055282;28;20539;-88
2022/11/13 02:46:29;;;;;;;8.90;5.85;;;;;;;;;;5055807;28;20225;-88
2022/11/13 02:48:55;;;;;;;7.85;5.70;;;;;;;;;;5037573;28;20547;-88
2022/11/13 02:51:21;;;;;;;8.98;5.35;;;;;;;;;;5056239;28;20174;-84
2022/11/13 02:53:47;;;;;;;8.63;6.28;;;;;;;;;;5056866;28;20186;-88
2022/11/13 02:56:13;;;;;;;6.80;5.18;;;;;;;;;;5057174;28;20170;-88
2022/11/13 02:58:39;;;;;;;8.95;4.63;;;;;;;;;;5056797;28;20170;-88
2022/11/13 03:01:06;;;;;;;6.40;5.78;;;;;;;;;;5060084;28;20236;-84
2022/11/13 03:03:32;;;;;;;7.30;5.72;;;;;;;;;;5066043;28;20252;-88
2022/11/13 03:05:58;;;;;;;6.60;5.28;;;;;;;;;;5058956;28;20169;-89
2022/11/13 03:08:24;;;;;;;5.55;4.30;;;;;;;;;;5056707;28;20633;-87
2022/11/13 03:10:51;;;;;;;5.53;4.25;;;;;;;;;;5055385;28;20185;-87
2022/11/13 03:13:17;;;;;;;6.43;3.80;;;;;;;;;;5055576;28;20213;-88
2022/11/13 03:15:43;;;;;;;4.85;4.07;;;;;;;;;;5055895;28;20182;-89
2022/11/13 03:18:12;;;;;;;7.90;4.90;;;;;;;;;;5054785;28;20226;-89
2022/11/13 03:20:40;;;;;;;5.50;4.10;;;;;;;;;;5054757;28;20173;-88
2022/11/13 03:23:06;;;;;;;8.55;4.47;;;;;;;;;;5056054;28;20188;-88
2022/11/13 03:25:32;;;;;;;5.00;4.32;;;;;;;;;;5054124;28;20255;-88
2022/11/13 03:27:59;;;;;;;5.68;4.63;;;;;;;;;;5055097;28;20173;-88
2022/11/13 03:30:25;;;;;;;5.85;4.80;;;;;;;;;;5054030;28;20189;-87
2022/11/13 03:32:55;;;;;;;5.80;4.47;;;;;;;;;;5054854;28;20213;-88
2022/11/13 03:35:21;;;;;;;9.20;5.22;;;;;;;;;;5055690;28;20177;-88
2022/11/13 03:37:47;;;;;;;5.20;4.47;;;;;;;;;;5056483;28;20181;-88
2022/11/13 03:40:13;;;;;;;5.03;4.57;;;;;;;;;;5054585;28;20193;-89
2022/11/13 03:42:39;;;;;;;6.63;4.80;;;;;;;;;;5054734;28;20192;-89
2022/11/13 03:45:06;;;;;;;6.15;4.50;;;;;;;;;;5056222;28;20182;-89
2022/11/13 03:47:32;;;;;;;8.10;5.47;;;;;;;;;;5055720;28;20181;-89
2022/11/13 03:49:58;;;;;;;6.18;4.45;;;;;;;;;;5054555;28;20178;-89
2022/11/13 03:52:24;;;;;;;7.28;4.82;;;;;;;;;;5054988;28;20216;-89
2022/11/13 03:54:50;;;;;;;5.85;5.20;;;;;;;;;;5055846;28;20173;-88
2022/11/13 03:57:16;;;;;;;7.60;6.15;;;;;;;;;;5054946;28;20192;-86
2022/11/13 03:59:42;;;;;;;5.28;4.72;;;;;;;;;;5054134;28;20231;-88
2022/11/13 04:02:08;;;;;;;6.70;4.88;;;;;;;;;;5037884;28;20332;-89
2022/11/13 04:04:34;;;;;;;5.72;5.15;;;;;;;;;;5037763;28;20178;-88
2022/11/13 04:07:00;;;;;;;5.57;4.72;;;;;;;;;;5053576;28;20207;-88
2022/11/13 04:09:26;;;;;;;9.15;5.72;;;;;;;;;;5054539;28;20193;-83
2022/11/13 04:11:52;;;;;;;5.88;4.78;;;;;;;;;;5053664;28;20208;-89
2022/11/13 04:14:18;;;;;;;5.97;4.82;;;;;;;;;;5037985;28;20633;-88
2022/11/13 04:16:44;;;;;;;5.60;4.55;;;;;;;;;;5055738;28;20170;-89
2022/11/13 04:19:10;;;;;;;7.32;4.65;;;;;;;;;;5054222;28;20184;-88
2022/11/13 04:21:36;;;;;;;4.40;3.85;;;;;;;;;;5054498;28;20169;-88
2022/11/13 04:24:02;;;;;;;5.88;4.28;;;;;;;;;;5054825;28;20188;-88
2022/11/13 04:26:28;;;;;;;6.47;4.28;;;;;;;;;;5040509;28;20273;-84
2022/11/13 04:28:54;;;;;;;4.97;4.22;;;;;;;;;;5034914;28;20174;-88
2022/11/13 04:31:20;;;;;;;4.95;3.97;;;;;;;;;;5033013;28;20185;-89
2022/11/13 04:33:46;;;;;;;7.05;4.50;;;;;;;;;;5016785;28;20189;-88
2022/11/13 04:36:12;;;;;;;4.97;4.10;;;;;;;;;;5034227;28;20175;-88
2022/11/13 04:38:38;;;;;;;8.13;5.35;;;;;;;;;;5033260;28;20244;-87
2022/11/13 04:43:49;;;;;;;6.70;4.40;;;;;;;;;;5033635;28;20235;-89
2022/11/13 04:46:15;;;;;;;6.90;4.20;;;;;;;;;;5034155;28;20257;-88
2022/11/13 04:48:41;;;;;;;8.25;4.90;;;;;;;;;;5032767;28;20253;-88
2022/11/13 04:51:07;;;;;;;7.20;4.90;;;;;;;;;;5033546;28;20216;-88
2022/11/13 04:53:33;;;;;;;6.40;5.05;;;;;;;;;;5040184;28;20194;-88
2022/11/13 04:55:59;;;;;;;8.10;4.80;;;;;;;;;;5034483;28;20181;-86
2022/11/13 04:58:25;;;;;;;6.50;5.45;;;;;;;;;;5034185;28;20225;-87
2022/11/13 05:00:51;;;;;;;6.32;4.60;;;;;;;;;;5033292;28;20182;-88
2022/11/13 05:03:17;;;;;;;5.90;4.60;;;;;;;;;;5017039;28;20540;-88
2022/11/13 05:05:43;;;;;;;5.93;4.78;;;;;;;;;;5032744;28;20623;-89
2022/11/13 05:08:10;;;;;;;5.95;4.50;;;;;;;;;;5032651;28;20182;-88
2022/11/13 05:10:36;;;;;;;5.53;4.88;;;;;;;;;;5033953;28;20184;-88
2022/11/13 05:13:02;;;;;;;5.75;4.47;;;;;;;;;;5034118;28;20573;-87
2022/11/13 05:15:28;;;;;;;4.75;3.90;;;;;;;;;;5037133;28;20589;-88
2022/11/13 05:17:54;;;;;;;5.03;4.53;;;;;;;;;;5037744;28;20166;-88
2022/11/13 05:20:20;;;;;;;4.40;3.92;;;;;;;;;;5041414;28;20174;-87
2022/11/13 05:22:46;;;;;;;4.35;3.90;;;;;;;;;;5043023;28;20181;-88
2022/11/13 05:25:12;;;;;;;6.03;4.32;;;;;;;;;;5047176;28;20205;-88
2022/11/13 05:27:38;;;;;;;6.28;3.95;;;;;;;;;;5038470;28;20256;-88
2022/11/13 05:30:05;;;;;;;4.70;4.20;;;;;;;;;;5020196;28;20324;-88
2022/11/13 05:32:31;;;;;;;7.97;4.25;;;;;;;;;;5036602;28;20213;-85
2022/11/13 05:34:57;;;;;;;6.10;4.85;;;;;;;;;;5036097;28;20545;-88
2022/11/13 05:37:23;;;;;;;5.30;4.05;;;;;;;;;;5036585;28;20205;-88
2022/11/13 05:39:49;;;;;;;3.67;3.38;;;;;;;;;;5019588;28;20198;-88
2022/11/13 05:42:15;;;;;;;4.40;4.00;;;;;;;;;;5038489;28;20627;-89
2022/11/13 05:44:41;;;;;;;5.82;3.63;;;;;;;;;;5023456;28;20212;-89
2022/11/13 05:47:07;;;;;;;7.53;4.05;;;;;;;;;;5019747;28;20178;-88
2022/11/13 05:49:33;;;;;;;4.25;3.70;;;;;;;;;;5036832;28;20170;-88
2022/11/13 05:51:59;;;;;;;7.47;4.40;;;;;;;;;;5036380;28;20224;-89
2022/11/13 05:54:25;;;;;;;8.20;4.63;;;;;;;;;;5019850;28;20190;-88
2022/11/13 05:56:51;;;;;;;7.55;4.75;;;;;;;;;;5035912;28;20185;-89
2022/11/13 05:59:17;;;;;;;7.68;4.20;;;;;;;;;;5036029;28;20178;-88
2022/11/13 06:01:43;;;;;;;6.63;4.25;;;;;;;;;;5036459;28;20237;-88
2022/11/13 06:04:09;;;;;;;6.03;5.15;;;;;;;;;;5036766;28;20178;-88
2022/11/13 06:06:36;;;;;;;7.45;4.35;;;;;;;;;;5035742;28;20174;-88
2022/11/13 06:09:03;;;;;;;7.68;4.60;;;;;;;;;;5036914;28;20209;-89
2022/11/13 06:11:29;;;;;;;10.48;5.10;;;;;;;;;;5036168;28;20178;-88
2022/11/13 06:13:56;;;;;;;8.35;5.40;;;;;;;;;;5036501;28;20170;-88
2022/11/13 06:16:24;;;;;;;8.45;5.80;;;;;;;;;;5037188;28;20182;-88
2022/11/13 06:18:50;;;;;;;6.28;4.82;;;;;;;;;;5035934;28;20177;-88
2022/11/13 06:21:18;;;;;;;8.88;5.57;;;;;;;;;;5037442;28;20540;-87
2022/11/13 06:23:44;;;;;;;9.95;6.72;;;;;;;;;;5036728;28;20656;-88
2022/11/13 06:26:12;;;;;;;9.55;5.82;;;;;;;;;;5039822;28;20201;-88
2022/11/13 06:28:38;;;;;;;7.88;4.80;;;;;;;;;;5037443;28;20579;-87
2022/11/13 06:31:05;;;;;;;8.50;4.85;;;;;;;;;;5045843;28;20246;-88
2022/11/13 06:33:31;;;;;;;9.60;5.80;;;;;;;;;;5057587;28;20241;-87
2022/11/13 06:35:57;;;;;;;11.20;5.93;;;;;;;;;;5056336;28;20182;-88
2022/11/13 06:38:23;;;;;;;7.85;5.20;;;;;;;;;;5058104;28;20188;-89
2022/11/13 06:40:49;;;;;;;9.40;5.22;;;;;;;;;;5057546;28;20255;-88
2022/11/13 06:43:15;;;;;;;7.18;4.78;;;;;;;;;;5055888;28;20534;-89
2022/11/13 06:45:41;;;;;;;6.65;4.85;;;;;;;;;;5038475;28;20545;-89
2022/11/13 06:48:07;;;;;;;8.70;5.35;;;;;;;;;;5054722;28;20184;-88
2022/11/13 06:50:33;;;;;;;7.15;5.22;;;;;;;;;;5056749;28;20177;-88
2022/11/13 06:53:00;;;;;;;7.50;5.00;;;;;;;;;;5055685;28;20201;-89
2022/11/13 06:55:26;;;;;;;7.93;4.90;;;;;;;;;;5059000;28;20187;-88
2022/11/13 06:57:53;;;;;;;10.02;5.03;;;;;;;;;;5057275;28;20535;-89
2022/11/13 07:00:19;;;;;;;7.95;5.57;;;;;;;;;;5056058;28;20186;-89
2022/11/13 07:02:49;;;;;;;8.30;5.47;;;;;;;;;;5054020;28;20717;-88
2022/11/13 07:05:15;;;;;;;5.15;4.65;;;;;;;;;;5056133;28;20176;-88
2022/11/13 07:07:41;;;;;;;8.40;4.70;;;;;;;;;;5055809;28;20196;-89
2022/11/13 07:10:07;;;;;;;7.70;5.05;;;;;;;;;;5057585;28;20219;-88
2022/11/13 07:12:33;;;;;;;7.35;4.43;;;;;;;;;;5062216;28;20235;-88
2022/11/13 07:14:59;;;;;;;8.70;5.15;;;;;;;;;;5057764;28;20174;-89
2022/11/13 07:17:26;;;;;;;10.35;4.78;;;;;;;;;;5056548;28;20205;-90
2022/11/13 07:19:52;;;;;;;7.80;5.05;;;;;;;;;;5056108;28;20170;-89
2022/11/13 07:22:17;;;;;;;5.90;4.53;;;;;;;;;;5040105;28;20181;-89
2022/11/13 07:24:44;;;;;;;10.70;5.22;;;;;;;;;;5038550;28;20185;-89
2022/11/13 07:27:10;;;;;;;5.90;4.22;;;;;;;;;;5055270;28;20276;-89
2022/11/13 07:29:37;;;;;;;10.98;5.00;;;;;;;;;;5054743;28;20209;-89
2022/11/13 07:32:03;;;;;;;8.35;5.25;;;;;;;;;;5055982;28;20741;-89
2022/11/13 07:34:30;;;;;;;6.95;5.15;;;;;;;;;;5054377;28;20179;-88
2022/11/13 07:36:56;;;;;;;7.20;4.72;;;;;;;;;;5054702;28;20249;-88
2022/11/13 07:39:22;;;;;;;9.55;5.30;;;;;;;;;;5055793;28;20236;-87
2022/11/13 07:41:48;;;;;;;6.72;4.95;;;;;;;;;;5058739;28;20245;-86
2022/11/13 07:44:14;;;;;;;6.55;4.57;;;;;;;;;;5059690;28;20654;-86
2022/11/13 07:46:40;;;;;;;6.90;4.75;;;;;;;;;;5061290;28;20174;-81
2022/11/13 07:49:06;;;;;;;6.00;4.53;;;;;;;;;;5058189;28;20185;-84
2022/11/13 07:51:32;;;;;;;9.80;4.85;;;;;;;;;;5051660;28;20181;-90
2022/11/13 07:53:58;;;;;;;8.63;6.07;;;;;;;;;;5056076;28;20175;-88
2022/11/13 07:56:24;;;;;;;6.20;4.95;;;;;;;;;;5054379;28;20235;-89
2022/11/13 07:58:50;;;;;;;6.13;4.15;;;;;;;;;;5055014;28;20185;-89
2022/11/13 08:01:16;;;;;;;5.53;4.43;;;;;;;;;;5053526;28;20688;-89
2022/11/13 08:03:42;;;;;;;6.90;4.50;;;;;;;;;;5053187;28;20205;-88
2022/11/13 08:06:09;;;;;;;5.70;3.92;;;;;;;;;;5036853;28;20188;-89
2022/11/13 08:08:35;;;;;;;7.03;4.47;;;;;;;;;;5053688;28;20184;-89
2022/11/13 08:11:05;;;;;;;5.57;3.75;;;;;;;;;;5054013;28;20188;-89
2022/11/13 08:13:33;;;;;;;4.95;3.67;;;;;;;;;;5054472;28;20236;-89
2022/11/13 08:15:59;;;;;;;5.10;3.72;;;;;;;;;;5052733;28;20568;-89
2022/11/13 08:18:27;;;;;;;4.97;3.40;;;;;;;;;;5054067;28;20336;-89
2022/11/13 08:20:53;;;;;;;5.60;3.58;;;;;;;;;;5053788;28;20177;-90
2022/11/13 08:23:19;;;;;;;5.53;3.90;;;;;;;;;;5054089;28;20273;-89
2022/11/13 08:25:45;;;;;;;6.13;3.60;;;;;;;;;;5052911;28;20178;-88
2022/11/13 08:28:11;;;;;;;4.75;3.33;;;;;;;;;;5036440;28;20182;-88
2022/11/13 08:30:37;;;;;;;5.30;3.33;;;;;;;;;;5037066;28;20226;-90
2022/11/13 08:33:04;;;;;;;5.55;4.13;;;;;;;;;;5054617;28;20205;-80
2022/11/13 08:35:30;;;;;;;5.88;3.70;;;;;;;;;;5054085;28;20642;-81
2022/11/13 08:38:03;;;;;;;5.93;3.70;;;;;;;;;;5052969;28;20169;-81
2022/11/13 08:40:29;;;;;;;7.00;3.40;;;;;;;;;;5054413;28;20511;-81
2022/11/13 08:42:59;;;;;;;6.22;3.60;;;;;;;;;;5053213;28;20178;-81
2022/11/13 08:45:25;;;;;;;5.75;4.18;;;;;;;;;;5054750;28;20191;-81
2022/11/13 08:47:51;;;;;;;8.18;3.97;;;;;;;;;;5052785;28;20170;-80
2022/11/13 08:50:17;;;;;;;6.22;3.60;;;;;;;;;;5053038;28;20192;-81
2022/11/13 08:52:43;;;;;;;5.35;3.70;;;;;;;;;;5052647;28;20221;-80
2022/11/13 08:55:09;;;;;;;7.57;3.92;;;;;;;;;;5052851;28;20223;-80
2022/11/13 08:57:36;;;;;;;5.22;4.13;;;;;;;;;;5053218;28;20603;-81
2022/11/13 09:00:02;;;;;;;6.40;3.65;;;;;;;;;;5053876;28;20659;-81
2022/11/13 09:02:28;;;;;;;5.57;3.67;;;;;;;;;;5052351;28;20318;-81
2022/11/13 09:04:54;;;;;;;5.07;3.40;;;;;;;;;;5052920;28;20174;-81
2022/11/13 09:07:20;;;;;;;4.93;3.05;;;;;;;;;;5052951;28;20181;-80
2022/11/13 09:09:46;;;;;;;3.63;2.75;;;;;;;;;;5036565;28;20182;-80
2022/11/13 09:12:12;;;;;;;3.55;2.85;;;;;;;;;;5052846;28;20547;-80
2022/11/13 09:14:38;;;;;;;9.00;2.88;;;;;;;;;;5054410;28;20174;-80
2022/11/13 09:17:04;;;;;;;3.72;2.53;;;;;;;;;;5052725;28;20181;-80
2022/11/13 09:19:30;;;;;;;4.22;2.90;;;;;;;;;;5052645;28;20272;-80
2022/11/13 09:21:56;;;;;;;3.25;2.60;;;;;;;;;;5053703;28;20182;-81
2022/11/13 09:24:22;;;;;;;4.85;2.80;;;;;;;;;;5053734;28;20186;-80
2022/11/13 09:26:48;;;;;;;3.88;2.40;;;;;;;;;;5053830;28;20222;-81
2022/11/13 09:29:14;;;;;;;3.92;2.65;;;;;;;;;;5053093;28;20178;-81
2022/11/13 09:31:40;;;;;;;2.67;2.47;;;;;;;;;;5052283;28;20253;-81
2022/11/13 09:34:07;;;;;;;3.92;2.90;;;;;;;;;;5052828;28;20178;-81
2022/11/13 09:36:33;;;;;;;4.93;2.80;;;;;;;;;;5053935;28;20170;-81
2022/11/13 09:38:59;;;;;;;2.80;2.57;;;;;;;;;;5052405;28;20424;-81
2022/11/13 09:41:35;;;;;;;3.00;2.70;;;;;;;;;;5052734;28;20458;-81
2022/11/13 09:44:03;;;;;;;3.00;2.37;;;;;;;;;;5053173;28;20735;-81
2022/11/13 09:46:42;;;;;;;5.87;2.90;;;;;;;;;;5052060;28;20414;-82
2022/11/13 09:49:11;;;;;;;5.20;2.90;;;;;;;;;;5051415;28;20507;-82
2022/11/13 09:51:38;;;;;;;3.20;2.70;;;;;;;;;;5053326;28;20405;-82
2022/11/13 09:54:13;;;;;;;4.70;2.93;;;;;;;;;;5052179;28;20434;-82
2022/11/13 09:56:48;;;;;;;2.93;2.63;;;;;;;;;;5053521;28;20519;-82
2022/11/13 09:59:23;;;;;;;3.40;2.50;;;;;;;;;;5054739;28;20415;-81
2022/11/13 10:01:52;;;;;;;3.10;2.80;;;;;;;;;;5056351;28;20478;-81
2022/11/13 10:04:21;;;;;;;4.40;2.80;;;;;;;;;;5055029;28;20383;-81
2022/11/13 10:06:50;;;;;;;4.10;2.53;;;;;;;;;;5056617;28;20457;-81
2022/11/13 10:09:24;;;;;;;4.60;3.23;;;;;;;;;;5056813;28;20489;-81
2022/11/13 10:11:50;;;;;;;2.97;2.60;;;;;;;;;;5056308;28;20970;-80
2022/11/13 10:14:19;;;;;;;3.23;2.33;;;;;;;;;;5059138;28;20397;-81
2022/11/13 10:16:48;;;;;;;3.10;2.73;;;;;;;;;;5056668;28;20378;-80
2022/11/13 10:19:21;;;;;;;2.57;2.30;;;;;;;;;;5056698;28;20528;-80
2022/11/13 10:21:48;;;;;;;5.30;2.77;;;;;;;;;;5056440;28;20471;-80
2022/11/13 10:24:36;;;;;;;4.03;3.50;;;;;;;;;;5054902;28;20477;-80
2022/11/13 10:27:07;;;;;;;3.83;2.53;;;;;;;;;;5054781;28;20383;-81
2022/11/13 10:29:34;;;;;;;4.97;2.77;;;;;;;;;;5056459;28;20470;-80
2022/11/13 10:32:13;;;;;;;6.07;2.47;;;;;;;;;;5055589;28;20858;-80
2022/11/13 10:34:39;;;;;;;3.30;2.60;;;;;;;;;;5054503;28;20397;-80
2022/11/13 10:37:05;;;;;;;3.20;2.60;;;;;;;;;;5053603;28;20449;-80
2022/11/13 10:39:31;;;;;;;3.30;2.17;;;;;;;;;;5053940;28;20791;-81
2022/11/13 10:41:57;;;;;;;5.80;2.60;;;;;;;;;;5054028;28;20482;-81
2022/11/13 10:44:29;;;;;;;3.10;2.50;;;;;;;;;;5054333;28;20383;-81
2022/11/13 10:47:05;;;;;;;3.77;2.47;;;;;;;;;;5053576;28;20432;-81
2022/11/13 10:49:31;;;;;;;8.40;2.70;;;;;;;;;;5053358;28;20434;-81
2022/11/13 10:51:59;;;;;;;2.73;2.00;;;;;;;;;;5036681;28;20467;-81
2022/11/13 10:54:25;;;;;;;3.93;2.30;;;;;;;;;;5055040;28;20407;-81
2022/11/13 10:56:57;;;;;;;3.00;2.37;;;;;;;;;;5054315;28;20408;-81
2022/11/13 10:59:25;;;;;;;2.90;2.17;;;;;;;;;;5054009;28;20470;-81
2022/11/13 11:01:51;;;;;;;3.97;1.97;;;;;;;;;;5054073;28;20759;-81
2022/11/13 11:04:22;;;;;;;2.03;1.83;;;;;;;;;;5054629;28;20392;-82
2022/11/13 11:06:48;;;;;;;2.90;2.03;;;;;;;;;;5054548;28;20408;-81
2022/11/13 11:09:20;;;;;;;3.53;1.60;;;;;;;;;;5052698;28;20416;-81
2022/11/13 11:12:17;;;;;;;6.40;1.83;;;;;;;;;;5046663;28;20465;-81
2022/11/13 11:14:54;;;;;;;2.67;1.93;;;;;;;;;;5034093;28;20383;-82
2022/11/13 11:17:21;;;;;;;3.43;2.03;;;;;;;;;;5033926;28;20398;-81
2022/11/13 11:19:52;;;;;;;2.50;2.00;;;;;;;;;;5022902;28;20745;-82
2022/11/13 11:22:20;;;;;;;3.40;2.00;;;;;;;;;;5033020;28;20424;-81
2022/11/13 11:25:10;;;;;;;3.77;2.40;;;;;;;;;;5032695;28;20409;-82
2022/11/13 11:27:42;;;;;;;5.27;2.30;;;;;;;;;;5005043;28;20417;-82
2022/11/13 11:30:17;;;;;;;2.77;2.10;;;;;;;;;;5033508;28;20448;-81
2022/11/13 11:32:46;;;;;;;3.40;2.53;;;;;;;;;;5033798;28;20431;-83
2022/11/13 11:35:15;;;;;;;2.67;2.00;;;;;;;;;;5032175;28;20862;-81
2022/11/13 11:37:47;;;;;;;3.13;2.00;;;;;;;;;;5032630;28;20506;-81
2022/11/13 11:40:16;;;;;;;2.27;1.63;;;;;;;;;;5032210;28;21306;-81
2022/11/13 11:42:52;;;;;;;3.47;1.80;;;23.20;91.80;;;;;;5033816;28;20420;-81
2022/11/13 11:45:38;;;;;;;2.90;1.80;;;22.90;91.30;;;;;;5033898;28;20411;-81
2022/11/13 11:48:13;;;;;;;3.63;1.90;;;22.90;90.80;;;;;;5032611;28;20924;-82
2022/11/13 11:51:00;;;;;;;4.63;2.13;;;22.40;90.10;;;;;;5033640;28;20797;-80
2022/11/13 11:53:47;;;;;;;7.40;1.80;;;22.20;88.90;;;;;;5032054;28;20492;-81
2022/11/13 11:56:16;;;;;;;2.33;1.80;;;21.90;89.50;;;;;;5032486;28;20502;-82
2022/11/13 11:58:47;;;;;;;1.40;1.23;;;21.70;90.10;;;;;;5032282;28;20453;-82
2022/11/13 12:01:33;;;;;;;3.60;1.70;;;21.50;87.00;;;;;;5031114;28;20949;-81
2022/11/13 12:04:10;;;;;;;2.60;1.63;;;21.20;90.00;;;;;;5031643;28;20395;-82
2022/11/13 12:06:47;;;;;;;2.83;1.50;;;21.20;88.30;;;;;;5041985;28;20755;-83
2022/11/13 12:09:34;;;;;;;1.80;1.57;;;21.00;89.90;;;;;;5052708;28;20407;-81
2022/11/13 12:12:24;;;;;;;2.13;1.93;;;21.10;90.00;;;;;;5049459;28;20522;-82
2022/11/13 12:15:05;;;;;;;3.00;1.83;;;21.50;90.60;;;;;;5031726;28;20504;-82
2022/11/13 12:18:01;;;;;;;3.93;1.60;;;21.60;91.10;;;;;;5033209;28;20892;-81
2022/11/13 12:20:48;;;;;;;2.87;1.77;;;21.70;91.70;;;;;;5033121;28;20402;-81
2022/11/13 12:23:32;;;;;;;3.00;1.87;;;21.90;90.90;;;;;;5031315;28;20451;-81
2022/11/13 12:26:36;;;;;;;1.73;1.50;;;22.10;89.50;;;;;;5031242;28;20475;-80
2022/11/13 12:29:23;;;;;;;3.03;1.80;;;22.00;86.80;;;;;;4955383;28;20427;-81
2022/11/13 12:31:54;;;;;;;3.10;1.70;;;22.30;86.10;;;;;;5028513;28;20929;-82
2022/11/13 12:34:39;;;;;;;2.20;1.73;;;22.40;84.60;;;;;;5030830;28;20504;-81
2022/11/13 12:37:11;;;;;;;2.57;1.97;;;22.30;84.10;;;;;;5031130;28;20432;-82
2022/11/13 12:39:59;;;;;;;3.03;2.00;;;22.30;83.60;;;;;;5032304;28;20409;-81
2022/11/13 12:42:38;;;;;;;4.40;2.43;;;22.60;82.90;;;;;;5032091;28;20932;-82
2022/11/13 12:45:30;;;;;;;3.73;2.70;;;23.10;83.70;;;;;;5030906;28;20424;-82
2022/11/13 12:48:29;;;;;;;3.83;2.60;;;23.10;80.50;;;;;;5031200;28;20420;-80
2022/11/13 12:50:59;;;;;;;3.43;2.27;;;23.00;83.20;;;;;;5022766;28;20420;-82
2022/11/13 12:53:27;;;;;;;2.10;1.90;;;23.20;81.60;;;;;;5032164;28;20464;-82
2022/11/13 12:56:27;;;;;;;4.13;2.00;;;23.10;82.00;;;;;;5032546;28;20475;-82
2022/11/13 12:58:55;;;;;;;2.40;1.70;;;23.30;80.30;;;;;;5028996;28;20868;-82
2022/11/13 13:01:22;;;;;;;3.93;2.07;;;23.60;79.80;;;;;;5031694;28;20461;-82
2022/11/13 13:03:59;;;;;;;2.20;1.97;;;23.80;78.30;;;;;;5032027;28;20454;-82
2022/11/13 13:06:43;;;;;;;3.83;2.53;;;23.70;76.30;;;;;;5031051;28;20936;-82
2022/11/13 13:09:38;;;;;;;2.67;1.90;;;23.50;77.00;;;;;;5030554;28;20409;-82
2022/11/13 13:12:38;;;;;;;2.23;1.90;;;23.60;75.50;;;;;;5029508;28;20472;-82
2022/11/13 13:15:16;;;;;;;3.03;1.77;;;23.40;75.30;;;;;;5031615;28;20397;-82
2022/11/13 13:17:42;;;;;;;2.03;1.80;;;23.40;71.80;;;;;;5031972;28;20397;-82
2022/11/13 13:20:13;;;;;;;2.60;2.20;;;23.20;72.40;;;;;;5031707;28;20423;-82
2022/11/13 13:22:39;;;;;;;3.40;2.90;;;23.30;74.90;;;;;;5030466;28;20548;-82
2022/11/13 13:25:21;;;;;;;4.97;2.13;;;23.50;75.30;;;;;;5030230;28;20508;-82
2022/11/13 13:28:18;;;;;;;6.07;2.60;;;23.60;73.90;;;;;;5030642;28;20181;-82
2022/11/13 13:31:25;;;;;;;2.00;1.80;;;23.40;74.50;;;;;;5031520;28;20546;-82
2022/11/13 13:34:06;;;;;;;2.33;1.80;;;23.30;73.60;;;;;;5030813;28;20468;-82
2022/11/13 13:37:04;;;;;;;5.40;1.90;;;23.40;74.70;;;;;;5035530;28;20752;-82
2022/11/13 13:39:59;;;;;;;3.43;2.27;;;23.60;74.90;;;;;;5035574;28;20463;-82
2022/11/13 13:42:30;;;;;;;2.97;2.33;;;23.70;74.00;;;;;;5035104;28;20416;-82
2022/11/13 13:45:19;;;;;;;4.07;2.30;;;23.80;73.80;;;;;;5034277;28;20768;-82
2022/11/13 13:47:48;;;;;;;5.20;2.77;;;23.80;70.40;;;;;;5033906;28;20424;-82
2022/11/13 13:50:18;;;;;;;4.67;3.10;;;23.70;71.10;;;;;;5033528;28;20465;-82
2022/11/13 13:52:44;;;;;;;3.30;2.83;;;23.70;71.50;;;;;;5035417;28;20940;-82
2022/11/13 13:55:21;;;;;;;4.33;2.80;;;23.40;70.70;;;;;;5033220;28;20542;-82
2022/11/13 13:57:47;;;;;;;2.27;1.97;;;23.20;69.60;;;;;;5035058;28;20490;-82
2022/11/13 14:00:15;;;;;;;2.03;1.83;;;23.10;70.70;;;;;;5033373;28;20407;-81
2022/11/13 14:02:49;;;;;;;1.93;1.73;;;23.30;70.00;;;;;;5034964;28;20468;-82
2022/11/13 14:05:26;;;;;;;2.83;2.20;;;22.80;70.60;;;;;;5033525;28;20384;-82
2022/11/13 14:07:52;;;;;;;1.90;1.70;;;22.90;69.40;;;;;;5034990;28;20408;-82
2022/11/13 14:10:21;;;;;;;3.40;2.20;;;23.10;67.90;;;;;;5033449;28;20423;-81
2022/11/13 14:12:47;;;;;;;2.10;1.90;;;23.10;67.30;;;;;;5034669;28;20490;-82
2022/11/13 14:15:29;;;;;;;3.63;2.43;;;22.80;68.90;;;;;;5033182;28;20428;-82
2022/11/13 14:18:16;;;;;;;4.07;2.60;;;22.80;69.70;;;;;;5033489;28;20417;-82
2022/11/13 14:20:51;;;;;;;5.50;3.47;;;22.90;69.20;;;;;;5034846;28;20756;-82
2022/11/13 14:23:26;;;;;;;4.70;2.97;;;22.50;70.20;;;;;;5033077;28;20452;-81
2022/11/13 14:25:53;;;;;;;3.13;2.83;;;22.50;71.60;;;;;;5033338;28;20404;-82
2022/11/13 14:28:21;;;;;;;4.67;3.13;;;22.50;70.50;;;;;;5034336;28;20762;-81
2022/11/13 14:31:01;;;;;;;7.80;3.80;;;22.60;68.90;;;;;;5033078;28;20404;-81
2022/11/13 14:33:50;;;;;;;8.90;3.70;;;22.40;69.40;;;;;;5034031;28;20443;-82
2022/11/13 14:36:28;;;;;;;2.90;2.40;;;22.20;69.20;;;;;;5033797;28;20776;-82